Flight Track Log - Related Links

Times and Time Zones

All times are in EDT time to prevent confusion due to time zone crossing. See the AZU4316 flight status page for this flight to view local times or setup timezone preferences in your user account.

Time Position Orientation Groundspeed Altitude Reporting Facility
EDT Latitude Longitude Course Direction KTS MPH feet Rate Location/Type
Mon 05:14:02 PM -23.0170 -47.1900 236° Southwest 185 213 3,400  Level FlightAware ADS-B
Mon 05:14:27 PM -23.0300 -47.2110 236° Southwest 185 213 3,800 800 Climbing FlightAware ADS-B
Mon 05:14:47 PM -23.0360 -47.2280 249° West 192 221 4,000 686 Climbing FlightAware ADS-B
Mon 05:15:02 PM -23.0410 -47.2420 249° West 197 227 4,200 857 Climbing FlightAware ADS-B
Mon 05:15:22 PM -23.0470 -47.2610 251° West 199 229 4,500 750 Climbing FlightAware ADS-B
Mon 05:15:42 PM -23.0520 -47.2790 253° West 201 231 4,700 600 Climbing FlightAware ADS-B
Mon 05:16:02 PM -23.0580 -47.2990 252° West 204 235 4,900 686 Climbing FlightAware ADS-B
Mon 05:16:17 PM -23.0620 -47.3130 253° West 203 234 5,100 857 Climbing FlightAware ADS-B
Mon 05:16:37 PM -23.0680 -47.3330 252° West 203 234 5,400 900 Climbing FlightAware ADS-B
Mon 05:16:57 PM -23.0740 -47.3530 252° West 205 236 5,700 625 Climbing FlightAware ADS-B
Mon 05:17:25 PM -23.0790 -47.3690 251° West 205 236 5,900 558 Climbing FlightAware ADS-B
Mon 05:17:40 PM -23.0830 -47.3820 252° West 206 237 6,100 811 Climbing FlightAware ADS-B
Mon 05:18:02 PM -23.0890 -47.4050 254° West 206 237 6,400 769 Climbing FlightAware ADS-B
Mon 05:18:19 PM -23.0940 -47.4240 254° West 207 238 6,600 727 Climbing FlightAware ADS-B
Mon 05:18:35 PM -23.0980 -47.4390 254° West 205 236 6,800 857 Climbing FlightAware ADS-B
Mon 05:18:47 PM -23.1030 -47.4550 251° West 203 234 7,000 857 Climbing FlightAware ADS-B
Mon 05:19:10 PM -23.1090 -47.4740 251° West 201 231 7,300 913 Climbing FlightAware ADS-B
Mon 05:19:33 PM -23.1150 -47.4950 253° West 198 228 7,700 1,077 Climbing FlightAware ADS-B
Mon 05:19:49 PM -23.1200 -47.5140 254° West 196 226 8,000 833 Climbing FlightAware ADS-B
Mon 05:20:09 PM -23.1250 -47.5290 250° West 195 224 8,200 857 Climbing FlightAware ADS-B
Mon 05:20:31 PM -23.1310 -47.5520 254° West 193 222 8,600 923 Climbing FlightAware ADS-B
Mon 05:20:48 PM -23.1350 -47.5660 253° West 193 222 8,800 727 Climbing FlightAware ADS-B
Mon 05:21:04 PM -23.1400 -47.5830 252° West 190 219 9,000 714 Climbing FlightAware ADS-B
Mon 05:21:30 PM -23.1340 -47.6020 289° West 186 214 9,300 714 Climbing FlightAware ADS-B
Mon 05:21:46 PM -23.1230 -47.6120 320° Northwest 186 214 9,500 727 Climbing FlightAware ADS-B
Mon 05:22:03 PM -23.1110 -47.6210 325° Northwest 186 214 9,700 857 Climbing FlightAware ADS-B
Mon 05:22:42 PM -23.0750 -47.6490 324° Northwest 189 217 10,300 800 Climbing FlightAware ADS-B
Mon 05:23:18 PM -23.0490 -47.6700 323° Northwest 191 220 10,700 649 Climbing FlightAware ADS-B
Mon 05:23:56 PM -23.0230 -47.6900 325° Northwest 190 219 11,100 771 Climbing FlightAware ADS-B
Mon 05:24:28 PM -22.9990 -47.7090 324° Northwest 189 217 11,600 794 Climbing FlightAware ADS-B
Mon 05:25:04 PM -22.9740 -47.7290 324° Northwest 187 215 12,000 711 Climbing FlightAware ADS-B
Mon 05:25:44 PM -22.9460 -47.7520 323° Northwest 188 216 12,500 375 Climbing FlightAware ADS-B
Mon 05:26:24 PM -22.9220 -47.7710 324° Northwest 188 216 12,500 568 Level FlightAware ADS-B
Mon 05:26:58 PM -22.9020 -47.7860 325° Northwest 188 216 13,200 1,000 Climbing FlightAware ADS-B
Mon 05:27:36 PM -22.8660 -47.8150 323° Northwest 192 221 13,700 761 Climbing FlightAware ADS-B
Mon 05:28:09 PM -22.8430 -47.8330 324° Northwest 193 222 14,100 575 Climbing FlightAware ADS-B
Mon 05:28:49 PM -22.8130 -47.8560 325° Northwest 192 221 14,400 568 Climbing FlightAware ADS-B
Mon 05:29:23 PM -22.7900 -47.8750 323° Northwest 193 222 14,800 553 Climbing FlightAware ADS-B
Mon 05:30:05 PM -22.7570 -47.9000 325° Northwest 196 226 15,100 474 Climbing FlightAware ADS-B
Mon 05:30:39 PM -22.7330 -47.9190 324° Northwest 200 230 15,400 441 Climbing FlightAware ADS-B
Mon 05:31:13 PM -22.7080 -47.9390 324° Northwest 201 231 15,600 429 Climbing FlightAware ADS-B
Mon 05:31:49 PM -22.6790 -47.9620 324° Northwest 204 235 15,900 583 Climbing FlightAware ADS-B
Mon 05:32:25 PM -22.6510 -47.9840 324° Northwest 205 236 16,300 583 Climbing FlightAware ADS-B
Mon 05:33:01 PM -22.6220 -48.0060 325° Northwest 206 237 16,600 423 Climbing FlightAware ADS-B
Mon 05:33:36 PM -22.5960 -48.0270 323° Northwest 207 238 16,800 448 Climbing FlightAware ADS-B
Mon 05:34:08 PM -22.5720 -48.0460 324° Northwest 206 237 17,100 514 Climbing FlightAware ADS-B
Mon 05:34:46 PM -22.5400 -48.0710 324° Northwest 206 237 17,400 405 Climbing FlightAware ADS-B
Mon 05:35:22 PM -22.5140 -48.0920 323° Northwest 209 241 17,600 333 Climbing FlightAware ADS-B
Mon 05:35:58 PM -22.4850 -48.1140 325° Northwest 210 242 17,800 343 Climbing FlightAware ADS-B
Mon 05:36:32 PM -22.4580 -48.1360 323° Northwest 211 243 18,000 171 Climbing FlightAware ADS-B
Mon 05:37:08 PM -22.4290 -48.1590 324° Northwest 219 252 18,000  Level FlightAware ADS-B
Mon 05:37:40 PM -22.4010 -48.1800 325° Northwest 229 264 18,000  Level FlightAware ADS-B
Mon 05:38:18 PM -22.3670 -48.2060 325° Northwest 232 267 18,000  Level FlightAware ADS-B
Mon 05:38:50 PM -22.3400 -48.2280 323° Northwest 236 272 18,000  Level FlightAware ADS-B
Mon 05:39:26 PM -22.3080 -48.2530 324° Northwest 240 276 18,000  Level FlightAware ADS-B
Mon 05:40:02 PM -22.2750 -48.2790 324° Northwest 242 278 18,000  Level FlightAware ADS-B
Mon 05:40:35 PM -22.2450 -48.3020 325° Northwest 243 280 18,000  Level FlightAware ADS-B
Mon 05:41:08 PM -22.2150 -48.3260 323° Northwest 244 281 18,000  Level FlightAware ADS-B
Mon 05:41:42 PM -22.1830 -48.3500 325° Northwest 244 281 18,000  Level FlightAware ADS-B
Mon 05:42:22 PM -22.1460 -48.3790 324° Northwest 247 284 18,000  Level FlightAware ADS-B
Mon 05:42:56 PM -22.1150 -48.4030 324° Northwest 245 282 18,000  Level FlightAware ADS-B
Mon 05:43:30 PM -22.0830 -48.4290 323° Northwest 245 282 18,000  Level FlightAware ADS-B
Mon 05:44:06 PM -22.0500 -48.4540 325° Northwest 245 282 18,000  Level FlightAware ADS-B
Mon 05:44:38 PM -22.0210 -48.4770 324° Northwest 244 281 18,000  Level FlightAware ADS-B
Mon 05:45:15 PM -21.9880 -48.5030 324° Northwest 243 280 18,000  Level FlightAware ADS-B
Mon 05:45:50 PM -21.9540 -48.5280 326° Northwest 244 281 18,000  Level FlightAware ADS-B
Mon 05:46:26 PM -21.9210 -48.5540 324° Northwest 244 281 18,000  Level FlightAware ADS-B
Mon 05:47:02 PM -21.8880 -48.5800 324° Northwest 242 278 18,000  Level FlightAware ADS-B
Mon 05:47:34 PM -21.8590 -48.6030 324° Northwest 243 280 18,000  Level FlightAware ADS-B
Mon 05:48:10 PM -21.8250 -48.6290 325° Northwest 242 278 18,000  Level FlightAware ADS-B
Mon 05:48:46 PM -21.7930 -48.6540 324° Northwest 243 280 18,000  Level FlightAware ADS-B
Mon 05:49:22 PM -21.7600 -48.6790 325° Northwest 243 280 18,000  Level FlightAware ADS-B
Mon 05:49:54 PM -21.7300 -48.7020 325° Northwest 243 280 18,000  Level FlightAware ADS-B
Mon 05:50:30 PM -21.6970 -48.7280 324° Northwest 241 277 18,000  Level FlightAware ADS-B
Mon 05:51:08 PM -21.6630 -48.7550 324° Northwest 242 278 18,000  Level FlightAware ADS-B
Mon 05:51:40 PM -21.6340 -48.7770 325° Northwest 242 278 18,000  Level FlightAware ADS-B
Mon 05:52:16 PM -21.6000 -48.8030 325° Northwest 242 278 18,000  Level FlightAware ADS-B
Mon 05:52:52 PM -21.5680 -48.8280 324° Northwest 242 278 18,000  Level FlightAware ADS-B
Mon 05:53:28 PM -21.5340 -48.8530 326° Northwest 242 278 18,000  Level FlightAware ADS-B
Mon 05:54:00 PM -21.5050 -48.8760 324° Northwest 242 278 18,000  Level FlightAware ADS-B
Mon 05:54:36 PM -21.4720 -48.9010 325° Northwest 242 278 18,000  Level FlightAware ADS-B
Mon 05:55:08 PM -21.4430 -48.9240 324° Northwest 242 278 18,000  Level FlightAware ADS-B
Mon 05:55:42 PM -21.4120 -48.9510 321° Northwest 244 281 18,000  Level FlightAware ADS-B
Mon 05:56:22 PM -21.3850 -48.9880 308° West 244 281 18,000  Level FlightAware ADS-B
Mon 05:56:54 PM -21.3630 -49.0190 307° West 244 281 18,000  Level FlightAware ADS-B
Mon 05:57:30 PM -21.3380 -49.0550 307° West 244 281 18,000  Level FlightAware ADS-B
Mon 05:58:06 PM -21.3140 -49.0890 307° West 245 282 18,000 -667 Level FlightAware ADS-B
Mon 05:58:42 PM -21.2870 -49.1260 308° West 275 316 17,200 -1,545 Descending FlightAware ADS-B
Mon 05:59:12 PM -21.2630 -49.1600 307° West 296 341 16,300 -1,950 Descending FlightAware ADS-B
Mon 06:00:02 PM -21.2210 -49.2190 307° West 292 336 14,600 -2,000 Descending FlightAware ADS-B
Mon 06:00:30 PM -21.1990 -49.2500 307° West 284 327 13,700 -2,063 Descending FlightAware ADS-B
Mon 06:01:06 PM -21.1710 -49.2910 306° West 277 319 12,400 -2,057 Descending FlightAware ADS-B
Mon 06:01:40 PM -21.1450 -49.3280 307° West 272 313 11,300 -1,853 Descending FlightAware ADS-B
Mon 06:02:14 PM -21.1190 -49.3640 308° West 269 310 10,300 -1,789 Descending FlightAware ADS-B
Mon 06:02:37 PM -21.1020 -49.3870 308° West 271 312 9,600 -1,909 Descending FlightAware ADS-B
Mon 06:02:58 PM -21.0850 -49.4110 307° West 270 311 8,900 -1,902 Descending FlightAware ADS-B
Mon 06:03:18 PM -21.0700 -49.4320 307° West 266 306 8,300 -1,765 Descending FlightAware ADS-B
Mon 06:03:49 PM -21.0500 -49.4600 307° West 264 304 7,400 -1,636 Descending FlightAware ADS-B
Mon 06:04:13 PM -21.0350 -49.4810 307° West 264 304 6,800 -720 Descending FlightAware ADS-B
Mon 06:04:39 PM -21.0190 -49.5040 307° West 264 304 6,800 -1,065 Level FlightAware ADS-B
Mon 06:06:54 PM -20.8910 -49.5060 24° Northeast 3,500 -1,238 Descending FlightAware ADS-B
Mon 06:07:00 PM -20.9204 -49.4565 24° Northeast  Level Estimated
Mon 06:07:19 PM -20.8810 -49.4930 51° Northeast 152 175 3,500  Level FlightAware ADS-B
Mon 06:07:34 PM -20.8740 -49.4820 56° Northeast 147 169 3,400 -462 Descending FlightAware ADS-B
Mon 06:07:58 PM -20.8660 -49.4720 49° Northeast 124 143 3,200 -600 Descending FlightAware ADS-B
Mon 06:08:14 PM -20.8590 -49.4630 50° Northeast 119 137 3,000 -750 Descending FlightAware ADS-B
Mon 06:08:38 PM -20.8500 -49.4510 51° Northeast 115 132 2,700 -625 Descending FlightAware ADS-B
Mon 06:09:02 PM -20.8430 -49.4420 50° Northeast 113 130 2,500 -571 Descending FlightAware ADS-B
Mon 06:09:20 PM -20.8380 -49.4350 53° Northeast 112 129 2,300 -563 Descending FlightAware ADS-B
Mon 06:09:34 PM -20.8320 -49.4270 51° Northeast 112 129 2,200 -632 Descending FlightAware ADS-B
Mon 06:09:58 PM -20.8250 -49.4170 53° Northeast 113 130 1,900 -563 Descending FlightAware ADS-B
Mon 06:10:06 PM -20.8220 -49.4130 51° Northeast 114 131 1,900  Level FlightAware ADS-B
Mon 06:10:22 PM -20.8170 -49.4070 48° Northeast 106 122 -7,125 Descending FlightAware ADS-B
Mon 06:10:46 PM -20.8140 -49.4030 51° Northeast 106 122  Level FlightAware ADS-B
Mon 06:11:23 PM -20.8210 -49.3930 127° Southeast 106 122  Level FlightAware ADS-B
Mon 06:11:26 PM -20.8130 -49.4030 311° West 106 122  Level FlightAware ADS-B
Mon 06:11:51 PM -20.8030 -49.4050 349° North 106 122  Level FlightAware ADS-B
Mon 06:14:00 PM -20.8166 -49.4065 186° South  Level Estimated
Mon 06:15:00 PM -20.8166 -49.4065 343° North  Level Estimated
Mon 06:16:00 PM -20.8166 -49.4065 343° North  Level Estimated
Mon 06:17:00 PM -20.8166 -49.4065 343° North  Level Estimated
Mon 06:18:00 PM -20.8166 -49.4065 343° North  Level Estimated
Mon 06:19:00 PM -20.8166 -49.4065 343° North  Level Estimated
Mon 06:20:00 PM -20.8166 -49.4065 343° North  Level Estimated
Mon 06:21:00 PM -20.8166 -49.4065 343° North  Level Estimated
Mon 06:22:00 PM -20.8166 -49.4065 343° North  Level Estimated
Mon 06:23:00 PM -20.8166 -49.4065 343° North  Level Estimated
Mon 06:24:00 PM -20.8166 -49.4065 343° North  Level Estimated
Mon 06:25:00 PM -20.8166 -49.4065 343° North  Level Estimated
Mon 06:26:00 PM -20.8166 -49.4065 343° North  Level Estimated
Mon 06:27:00 PM -20.8166 -49.4065 343° North  Level Estimated
Mon 06:28:00 PM -20.8166 -49.4065 343° North  Level Estimated
Mon 06:29:00 PM -20.8166 -49.4065 343° North  Level Estimated
Mon 06:30:00 PM -20.8166 -49.4065 343° North  Level Estimated
Mon 06:31:00 PM -20.8166 -49.4065 343° North  Level Estimated
Mon 06:32:00 PM -20.8166 -49.4065 343° North  Level Estimated
Mon 06:33:00 PM -20.8166 -49.4065 343° North  Level Estimated
Mon 06:34:00 PM -20.8166 -49.4065 343° North  Level Estimated
Mon 06:35:00 PM -20.8166 -49.4065 343° North  Level Estimated
Mon 06:36:00 PM -20.8166 -49.4065 343° North  Level Estimated

Login

Don't have an account? Register now (free) for customized features, flight alerts, and more!